sensor_id;sensor_type;location;lat;lon;timestamp;pressure;altitude;pressure_sealevel;temperature;humidity
49825;BME280;35714;55.708;37.478;2023-02-14T00:00:08;98197.75;;;2.96;64.24
49825;BME280;35714;55.708;37.478;2023-02-14T00:02:34;98197.13;;;3.01;64.54
49825;BME280;35714;55.708;37.478;2023-02-14T00:05:00;98203.66;;;3.05;64.75
49825;BME280;35714;55.708;37.478;2023-02-14T00:07:26;98205.91;;;3.08;64.53
49825;BME280;35714;55.708;37.478;2023-02-14T00:09:51;98201.16;;;3.10;64.62
49825;BME280;35714;55.708;37.478;2023-02-14T00:12:17;98201.13;;;3.17;64.83
49825;BME280;35714;55.708;37.478;2023-02-14T00:14:42;98205.38;;;3.24;64.26
49825;BME280;35714;55.708;37.478;2023-02-14T00:17:29;98205.00;;;3.21;64.21
49825;BME280;35714;55.708;37.478;2023-02-14T00:19:54;98208.72;;;3.20;64.34
49825;BME280;35714;55.708;37.478;2023-02-14T00:22:20;98206.25;;;3.18;64.25
49825;BME280;35714;55.708;37.478;2023-02-14T00:24:46;98204.59;;;3.17;64.02
49825;BME280;35714;55.708;37.478;2023-02-14T00:27:11;98207.13;;;3.12;63.62
49825;BME280;35714;55.708;37.478;2023-02-14T00:29:37;98210.88;;;3.04;63.98
49825;BME280;35714;55.708;37.478;2023-02-14T00:32:03;98213.78;;;3.03;64.38
49825;BME280;35714;55.708;37.478;2023-02-14T00:34:28;98206.78;;;3.02;64.62
49825;BME280;35714;55.708;37.478;2023-02-14T00:36:54;98211.09;;;3.03;64.37
49825;BME280;35714;55.708;37.478;2023-02-14T00:39:20;98215.00;;;3.07;64.22
49825;BME280;35714;55.708;37.478;2023-02-14T00:41:45;98224.47;;;3.03;63.93
49825;BME280;35714;55.708;37.478;2023-02-14T00:44:12;98200.66;;;2.95;63.33
49825;BME280;35714;55.708;37.478;2023-02-14T00:46:38;98208.31;;;2.84;64.13
49825;BME280;35714;55.708;37.478;2023-02-14T00:49:04;98209.38;;;2.83;64.04
49825;BME280;35714;55.708;37.478;2023-02-14T00:51:30;98223.00;;;2.75;64.05
49825;BME280;35714;55.708;37.478;2023-02-14T00:53:56;98216.88;;;2.68;64.82
49825;BME280;35714;55.708;37.478;2023-02-14T00:56:22;98221.19;;;2.69;65.07
49825;BME280;35714;55.708;37.478;2023-02-14T00:58:47;98227.31;;;2.76;64.93
49825;BME280;35714;55.708;37.478;2023-02-14T01:01:17;98209.00;;;2.73;65.05
49825;BME280;35714;55.708;37.478;2023-02-14T01:03:42;98219.88;;;2.85;64.79
49825;BME280;35714;55.708;37.478;2023-02-14T01:06:08;98225.81;;;2.87;64.72
49825;BME280;35714;55.708;37.478;2023-02-14T01:08:34;98223.31;;;2.92;64.53
49825;BME280;35714;55.708;37.478;2023-02-14T01:11:14;98212.59;;;2.92;64.46
49825;BME280;35714;55.708;37.478;2023-02-14T01:13:41;98207.69;;;2.89;64.42
49825;BME280;35714;55.708;37.478;2023-02-14T01:16:11;98222.13;;;2.88;64.27
49825;BME280;35714;55.708;37.478;2023-02-14T01:18:37;98212.91;;;2.77;64.34
49825;BME280;35714;55.708;37.478;2023-02-14T01:21:18;98223.34;;;2.85;64.36
49825;BME280;35714;55.708;37.478;2023-02-14T01:23:45;98229.53;;;2.86;64.54
49825;BME280;35714;55.708;37.478;2023-02-14T01:26:11;98231.97;;;2.87;64.91
49825;BME280;35714;55.708;37.478;2023-02-14T01:28:37;98231.13;;;2.94;64.99
49825;BME280;35714;55.708;37.478;2023-02-14T01:31:11;98229.06;;;2.96;64.74
49825;BME280;35714;55.708;37.478;2023-02-14T01:33:38;98229.66;;;2.98;64.95
49825;BME280;35714;55.708;37.478;2023-02-14T01:36:05;98243.06;;;2.98;64.79
49825;BME280;35714;55.708;37.478;2023-02-14T01:38:31;98243.50;;;2.95;65.07
49825;BME280;35714;55.708;37.478;2023-02-14T01:40:57;98253.41;;;2.87;65.68
49825;BME280;35714;55.708;37.478;2023-02-14T01:43:23;98240.22;;;2.86;65.96
49825;BME280;35714;55.708;37.478;2023-02-14T01:45:49;98246.00;;;2.89;66.29
49825;BME280;35714;55.708;37.478;2023-02-14T01:48:16;98242.91;;;2.86;66.14
49825;BME280;35714;55.708;37.478;2023-02-14T01:50:44;98259.13;;;2.98;66.31
49825;BME280;35714;55.708;37.478;2023-02-14T01:53:20;98263.25;;;2.94;66.33
49825;BME280;35714;55.708;37.478;2023-02-14T01:55:52;98264.09;;;2.94;66.62
49825;BME280;35714;55.708;37.478;2023-02-14T01:58:24;98260.16;;;2.97;66.93
49825;BME280;35714;55.708;37.478;2023-02-14T02:00:50;98250.06;;;2.99;67.13
49825;BME280;35714;55.708;37.478;2023-02-14T02:03:33;98256.63;;;3.03;67.42
49825;BME280;35714;55.708;37.478;2023-02-14T02:06:08;98256.97;;;3.13;67.64
49825;BME280;35714;55.708;37.478;2023-02-14T02:08:39;98252.81;;;3.17;67.91
49825;BME280;35714;55.708;37.478;2023-02-14T02:11:07;98263.88;;;3.28;68.09
49825;BME280;35714;55.708;37.478;2023-02-14T02:13:33;98254.63;;;3.23;67.45
49825;BME280;35714;55.708;37.478;2023-02-14T02:35:16;98281.47;;;3.49;67.47
49825;BME280;35714;55.708;37.478;2023-02-14T02:44:15;98280.22;;;3.51;67.40
49825;BME280;35714;55.708;37.478;2023-02-14T02:47:05;98270.78;;;3.42;66.97
49825;BME280;35714;55.708;37.478;2023-02-14T02:55:54;98272.44;;;3.43;67.80
49825;BME280;35714;55.708;37.478;2023-02-14T02:58:45;98286.88;;;3.42;67.60
49825;BME280;35714;55.708;37.478;2023-02-14T03:01:17;98274.78;;;3.33;67.70
49825;BME280;35714;55.708;37.478;2023-02-14T03:03:46;98275.00;;;3.31;67.82
49825;BME280;35714;55.708;37.478;2023-02-14T03:06:31;98277.50;;;3.26;68.02
49825;BME280;35714;55.708;37.478;2023-02-14T03:09:48;98280.78;;;3.28;67.85
49825;BME280;35714;55.708;37.478;2023-02-14T03:14:56;98274.00;;;3.25;67.46
49825;BME280;35714;55.708;37.478;2023-02-14T03:17:49;98282.03;;;3.25;67.87
49825;BME280;35714;55.708;37.478;2023-02-14T03:20:22;98282.47;;;3.22;67.61
49825;BME280;35714;55.708;37.478;2023-02-14T03:25:50;98280.03;;;3.14;67.44
49825;BME280;35714;55.708;37.478;2023-02-14T03:28:42;98284.34;;;3.15;67.22
49825;BME280;35714;55.708;37.478;2023-02-14T03:31:23;98288.50;;;3.11;67.22
49825;BME280;35714;55.708;37.478;2023-02-14T03:34:07;98274.50;;;3.09;67.46
49825;BME280;35714;55.708;37.478;2023-02-14T03:36:52;98273.47;;;3.10;67.13
49825;BME280;35714;55.708;37.478;2023-02-14T03:41:56;98282.16;;;3.05;67.32
49825;BME280;35714;55.708;37.478;2023-02-14T03:44:27;98299.03;;;3.06;67.41
49825;BME280;35714;55.708;37.478;2023-02-14T03:47:01;98297.38;;;3.05;67.33
49825;BME280;35714;55.708;37.478;2023-02-14T03:49:31;98295.38;;;3.00;66.89
49825;BME280;35714;55.708;37.478;2023-02-14T03:52:00;98260.69;;;2.74;67.26
49825;BME280;35714;55.708;37.478;2023-02-14T03:54:27;98301.78;;;2.93;67.46
49825;BME280;35714;55.708;37.478;2023-02-14T03:57:14;98297.03;;;2.95;67.61
49825;BME280;35714;55.708;37.478;2023-02-14T03:59:43;98305.25;;;3.00;67.75
49825;BME280;35714;55.708;37.478;2023-02-14T04:02:39;98299.47;;;3.03;67.22
49825;BME280;35714;55.708;37.478;2023-02-14T04:05:16;98304.47;;;2.93;67.11
49825;BME280;35714;55.708;37.478;2023-02-14T04:07:46;98298.91;;;2.87;67.31
49825;BME280;35714;55.708;37.478;2023-02-14T04:10:12;98295.03;;;2.83;67.46
49825;BME280;35714;55.708;37.478;2023-02-14T04:12:38;98304.94;;;2.76;67.46
49825;BME280;35714;55.708;37.478;2023-02-14T04:15:04;98302.28;;;2.69;67.51
49825;BME280;35714;55.708;37.478;2023-02-14T04:17:30;98313.81;;;2.70;67.57
49825;BME280;35714;55.708;37.478;2023-02-14T04:20:14;98306.19;;;2.67;67.59
49825;BME280;35714;55.708;37.478;2023-02-14T04:22:40;98314.44;;;2.65;67.75
49825;BME280;35714;55.708;37.478;2023-02-14T04:25:06;98315.28;;;2.66;67.90
49825;BME280;35714;55.708;37.478;2023-02-14T04:27:31;98330.94;;;2.69;67.84
49825;BME280;35714;55.708;37.478;2023-02-14T04:29:57;98323.06;;;2.74;67.78
49825;BME280;35714;55.708;37.478;2023-02-14T04:32:23;98328.00;;;2.77;67.37
49825;BME280;35714;55.708;37.478;2023-02-14T04:34:49;98342.00;;;2.79;67.38
49825;BME280;35714;55.708;37.478;2023-02-14T04:37:17;98330.09;;;2.75;67.15
49825;BME280;35714;55.708;37.478;2023-02-14T04:39:43;98346.56;;;2.72;66.89
49825;BME280;35714;55.708;37.478;2023-02-14T04:42:08;98350.06;;;2.66;66.87
49825;BME280;35714;55.708;37.478;2023-02-14T04:44:34;98355.22;;;2.61;67.02
49825;BME280;35714;55.708;37.478;2023-02-14T04:47:00;98356.47;;;2.58;67.09
49825;BME280;35714;55.708;37.478;2023-02-14T04:49:26;98359.78;;;2.53;67.34
49825;BME280;35714;55.708;37.478;2023-02-14T04:51:52;98353.59;;;2.53;67.78
49825;BME280;35714;55.708;37.478;2023-02-14T04:54:17;98362.03;;;2.57;67.88
49825;BME280;35714;55.708;37.478;2023-02-14T04:56:43;98369.84;;;2.65;67.40
49825;BME280;35714;55.708;37.478;2023-02-14T04:59:09;98368.19;;;2.64;67.33
49825;BME280;35714;55.708;37.478;2023-02-14T05:01:34;98379.53;;;2.66;67.22
49825;BME280;35714;55.708;37.478;2023-02-14T05:04:00;98372.50;;;2.65;67.53
49825;BME280;35714;55.708;37.478;2023-02-14T05:06:26;98384.44;;;2.69;67.15
49825;BME280;35714;55.708;37.478;2023-02-14T05:08:54;98388.53;;;2.71;67.17
49825;BME280;35714;55.708;37.478;2023-02-14T05:11:21;98380.28;;;2.80;67.30
49825;BME280;35714;55.708;37.478;2023-02-14T05:13:47;98381.13;;;2.80;66.85
49825;BME280;35714;55.708;37.478;2023-02-14T05:16:12;98394.28;;;2.88;66.50
49825;BME280;35714;55.708;37.478;2023-02-14T05:18:38;98398.59;;;2.89;66.46
49825;BME280;35714;55.708;37.478;2023-02-14T05:21:04;98405.38;;;2.92;66.29
49825;BME280;35714;55.708;37.478;2023-02-14T05:23:30;98404.56;;;2.92;65.70
49825;BME280;35714;55.708;37.478;2023-02-14T05:25:56;98403.75;;;2.91;65.53
49825;BME280;35714;55.708;37.478;2023-02-14T05:28:21;98405.41;;;2.85;65.17
49825;BME280;35714;55.708;37.478;2023-02-14T05:30:49;98412.81;;;2.83;65.65
49825;BME280;35714;55.708;37.478;2023-02-14T05:33:14;98416.09;;;2.85;65.46
49825;BME280;35714;55.708;37.478;2023-02-14T05:35:40;98408.28;;;2.84;65.40
49825;BME280;35714;55.708;37.478;2023-02-14T05:38:06;98424.75;;;2.87;65.10
49825;BME280;35714;55.708;37.478;2023-02-14T05:44:16;98417.75;;;2.86;65.07
49825;BME280;35714;55.708;37.478;2023-02-14T05:46:41;98418.38;;;2.88;65.05
49825;BME280;35714;55.708;37.478;2023-02-14T05:49:07;98421.03;;;2.88;64.90
49825;BME280;35714;55.708;37.478;2023-02-14T05:51:32;98424.31;;;2.97;65.17
49825;BME280;35714;55.708;37.478;2023-02-14T05:53:58;98424.09;;;3.05;65.04
49825;BME280;35714;55.708;37.478;2023-02-14T05:56:25;98404.94;;;3.02;64.85
49825;BME280;35714;55.708;37.478;2023-02-14T05:58:51;98411.91;;;3.10;64.92
49825;BME280;35714;55.708;37.478;2023-02-14T06:01:17;98409.00;;;3.18;64.57
49825;BME280;35714;55.708;37.478;2023-02-14T06:03:43;98421.34;;;3.25;64.62
49825;BME280;35714;55.708;37.478;2023-02-14T06:06:08;98421.09;;;3.34;64.60
49825;BME280;35714;55.708;37.478;2023-02-14T06:08:34;98423.34;;;3.37;64.59
49825;BME280;35714;55.708;37.478;2023-02-14T06:10:59;98421.44;;;3.44;64.54
49825;BME280;35714;55.708;37.478;2023-02-14T06:13:25;98430.28;;;3.51;64.54
49825;BME280;35714;55.708;37.478;2023-02-14T06:15:51;98424.06;;;3.57;64.64
49825;BME280;35714;55.708;37.478;2023-02-14T06:18:16;98426.88;;;3.69;64.36
49825;BME280;35714;55.708;37.478;2023-02-14T06:20:42;98412.44;;;3.70;63.49
49825;BME280;35714;55.708;37.478;2023-02-14T06:23:08;98411.44;;;3.65;63.49
49825;BME280;35714;55.708;37.478;2023-02-14T06:25:33;98426.94;;;3.63;63.68
49825;BME280;35714;55.708;37.478;2023-02-14T06:27:59;98411.22;;;3.66;64.16
49825;BME280;35714;55.708;37.478;2023-02-14T06:30:26;98418.03;;;3.69;63.84
49825;BME280;35714;55.708;37.478;2023-02-14T06:32:52;98427.94;;;3.68;63.92
49825;BME280;35714;55.708;37.478;2023-02-14T06:35:17;98418.47;;;3.66;63.93
49825;BME280;35714;55.708;37.478;2023-02-14T06:37:44;98436.31;;;3.85;64.06
49825;BME280;35714;55.708;37.478;2023-02-14T06:40:11;98431.31;;;3.89;64.13
49825;BME280;35714;55.708;37.478;2023-02-14T06:42:38;98430.03;;;3.91;64.02
49825;BME280;35714;55.708;37.478;2023-02-14T06:45:04;98442.00;;;3.95;63.85
49825;BME280;35714;55.708;37.478;2023-02-14T06:47:30;98441.56;;;3.98;63.96
49825;BME280;35714;55.708;37.478;2023-02-14T06:49:56;98445.72;;;3.94;63.82
49825;BME280;35714;55.708;37.478;2023-02-14T06:52:24;98450.22;;;4.01;64.10
49825;BME280;35714;55.708;37.478;2023-02-14T06:54:50;98455.56;;;4.01;63.71
49825;BME280;35714;55.708;37.478;2023-02-14T06:57:16;98450.63;;;3.97;63.74
49825;BME280;35714;55.708;37.478;2023-02-14T06:59:42;98451.50;;;3.91;63.78
49825;BME280;35714;55.708;37.478;2023-02-14T07:02:09;98465.91;;;3.97;63.82
49825;BME280;35714;55.708;37.478;2023-02-14T07:04:35;98458.91;;;3.96;64.13
49825;BME280;35714;55.708;37.478;2023-02-14T07:07:01;98466.72;;;4.04;64.14
49825;BME280;35714;55.708;37.478;2023-02-14T07:09:27;98470.72;;;4.20;63.91
49825;BME280;35714;55.708;37.478;2023-02-14T07:11:53;98477.63;;;4.34;63.59
49825;BME280;35714;55.708;37.478;2023-02-14T07:14:18;98468.13;;;4.39;63.71
49825;BME280;35714;55.708;37.478;2023-02-14T07:16:44;98475.03;;;4.53;63.32
49825;BME280;35714;55.708;37.478;2023-02-14T07:19:09;98476.06;;;4.52;62.71
49825;BME280;35714;55.708;37.478;2023-02-14T07:21:35;98473.88;;;4.42;62.65
49825;BME280;35714;55.708;37.478;2023-02-14T07:24:01;98485.75;;;4.28;62.59
49825;BME280;35714;55.708;37.478;2023-02-14T07:26:26;98482.28;;;4.21;63.01
49825;BME280;35714;55.708;37.478;2023-02-14T07:28:52;98473.41;;;4.20;63.24
49825;BME280;35714;55.708;37.478;2023-02-14T07:31:19;98482.19;;;4.34;63.28
49825;BME280;35714;55.708;37.478;2023-02-14T07:33:46;98488.94;;;4.43;62.77
49825;BME280;35714;55.708;37.478;2023-02-14T07:36:12;98487.00;;;4.50;62.56
49825;BME280;35714;55.708;37.478;2023-02-14T07:38:38;98482.03;;;4.54;62.37
49825;BME280;35714;55.708;37.478;2023-02-14T07:41:04;98491.88;;;4.60;62.55
49825;BME280;35714;55.708;37.478;2023-02-14T07:43:29;98495.19;;;4.62;62.43
49825;BME280;35714;55.708;37.478;2023-02-14T07:45:55;98494.13;;;4.63;62.42
49825;BME280;35714;55.708;37.478;2023-02-14T07:48:21;98493.97;;;4.58;62.02
49825;BME280;35714;55.708;37.478;2023-02-14T07:50:47;98506.41;;;4.52;62.17
49825;BME280;35714;55.708;37.478;2023-02-14T07:53:13;98503.19;;;4.44;62.58
49825;BME280;35714;55.708;37.478;2023-02-14T07:55:39;98514.78;;;4.38;62.44
49825;BME280;35714;55.708;37.478;2023-02-14T07:58:05;98512.31;;;4.36;63.23
49825;BME280;35714;55.708;37.478;2023-02-14T08:00:31;98516.44;;;4.39;63.09
49825;BME280;35714;55.708;37.478;2023-02-14T08:02:56;98517.19;;;4.46;63.30
49825;BME280;35714;55.708;37.478;2023-02-14T08:05:22;98514.66;;;4.51;62.81
49825;BME280;35714;55.708;37.478;2023-02-14T08:07:48;98517.13;;;4.52;62.71
49825;BME280;35714;55.708;37.478;2023-02-14T08:10:15;98520.44;;;4.55;62.57
49825;BME280;35714;55.708;37.478;2023-02-14T08:12:41;98505.25;;;4.42;62.46
49825;BME280;35714;55.708;37.478;2023-02-14T08:15:29;98526.75;;;4.42;62.57
49825;BME280;35714;55.708;37.478;2023-02-14T08:18:14;98530.50;;;4.34;62.85
49825;BME280;35714;55.708;37.478;2023-02-14T08:20:42;98538.34;;;4.29;62.82
49825;BME280;35714;55.708;37.478;2023-02-14T08:23:08;98534.06;;;4.21;63.14
49825;BME280;35714;55.708;37.478;2023-02-14T08:25:34;98531.03;;;4.11;62.88
49825;BME280;35714;55.708;37.478;2023-02-14T08:28:03;98543.00;;;4.15;62.96
49825;BME280;35714;55.708;37.478;2023-02-14T08:30:29;98541.78;;;4.11;62.90
49825;BME280;35714;55.708;37.478;2023-02-14T08:32:55;98543.88;;;4.09;62.60
49825;BME280;35714;55.708;37.478;2023-02-14T08:35:20;98552.16;;;3.94;62.62
49825;BME280;35714;55.708;37.478;2023-02-14T08:37:46;98564.59;;;3.82;62.90
49825;BME280;35714;55.708;37.478;2023-02-14T08:40:12;98562.97;;;3.74;63.76
49825;BME280;35714;55.708;37.478;2023-02-14T08:42:38;98573.28;;;3.77;64.14
49825;BME280;35714;55.708;37.478;2023-02-14T08:45:04;98576.13;;;3.89;63.98
49825;BME280;35714;55.708;37.478;2023-02-14T08:47:31;98573.59;;;4.01;63.82
49825;BME280;35714;55.708;37.478;2023-02-14T08:50:06;98576.41;;;4.19;63.27
49825;BME280;35714;55.708;37.478;2023-02-14T08:52:32;98592.47;;;4.26;62.50
49825;BME280;35714;55.708;37.478;2023-02-14T08:54:58;98596.19;;;4.25;62.30
49825;BME280;35714;55.708;37.478;2023-02-14T08:57:23;98586.28;;;4.25;62.16
49825;BME280;35714;55.708;37.478;2023-02-14T08:59:49;98589.34;;;4.29;62.19
49825;BME280;35714;55.708;37.478;2023-02-14T09:02:15;98583.00;;;4.23;61.42
49825;BME280;35714;55.708;37.478;2023-02-14T09:04:41;98607.69;;;4.32;61.08
49825;BME280;35714;55.708;37.478;2023-02-14T09:07:06;98607.31;;;4.28;60.40
49825;BME280;35714;55.708;37.478;2023-02-14T09:09:32;98594.50;;;4.30;60.11
49825;BME280;35714;55.708;37.478;2023-02-14T09:12:02;98601.88;;;4.42;59.98
49825;BME280;35714;55.708;37.478;2023-02-14T09:14:28;98600.81;;;4.75;60.33
49825;BME280;35714;55.708;37.478;2023-02-14T09:16:53;98604.25;;;5.14;59.41
49825;BME280;35714;55.708;37.478;2023-02-14T09:19:19;98614.75;;;5.40;58.25
49825;BME280;35714;55.708;37.478;2023-02-14T09:21:45;98619.59;;;5.57;57.38
49825;BME280;35714;55.708;37.478;2023-02-14T09:24:10;98610.78;;;5.68;55.77
49825;BME280;35714;55.708;37.478;2023-02-14T09:26:36;98622.66;;;5.79;55.13
49825;BME280;35714;55.708;37.478;2023-02-14T09:29:05;98618.97;;;5.73;55.59
49825;BME280;35714;55.708;37.478;2023-02-14T09:31:31;98629.44;;;5.63;55.27
49825;BME280;35714;55.708;37.478;2023-02-14T09:33:57;98629.34;;;5.51;55.52
49825;BME280;35714;55.708;37.478;2023-02-14T09:36:22;98616.63;;;5.40;55.59
49825;BME280;35714;55.708;37.478;2023-02-14T09:38:48;98613.25;;;5.26;55.51
49825;BME280;35714;55.708;37.478;2023-02-14T09:41:41;98624.16;;;5.31;55.83
49825;BME280;35714;55.708;37.478;2023-02-14T09:44:23;98632.53;;;5.41;55.73
49825;BME280;35714;55.708;37.478;2023-02-14T09:46:52;98643.13;;;5.62;54.94
49825;BME280;35714;55.708;37.478;2023-02-14T09:49:29;98636.78;;;5.74;55.03
49825;BME280;35714;55.708;37.478;2023-02-14T09:51:58;98640.38;;;5.87;54.51
49825;BME280;35714;55.708;37.478;2023-02-14T09:54:27;98654.88;;;5.86;54.43
49825;BME280;35714;55.708;37.478;2023-02-14T09:57:06;98659.50;;;5.78;53.64
49825;BME280;35714;55.708;37.478;2023-02-14T09:59:42;98641.97;;;5.51;53.28
49825;BME280;35714;55.708;37.478;2023-02-14T10:07:48;98681.50;;;5.25;54.53
49825;BME280;35714;55.708;37.478;2023-02-14T10:13:17;98678.72;;;5.06;54.26
49825;BME280;35714;55.708;37.478;2023-02-14T10:15:46;98687.09;;;4.92;54.64
49825;BME280;35714;55.708;37.478;2023-02-14T10:18:13;98697.88;;;4.85;54.67
49825;BME280;35714;55.708;37.478;2023-02-14T10:20:48;98700.38;;;4.80;54.38
49825;BME280;35714;55.708;37.478;2023-02-14T10:23:25;98707.84;;;4.71;54.82
49825;BME280;35714;55.708;37.478;2023-02-14T10:34:11;98701.50;;;4.65;55.04
49825;BME280;35714;55.708;37.478;2023-02-14T10:50:26;98733.22;;;5.20;52.90
49825;BME280;35714;55.708;37.478;2023-02-14T10:55:47;98741.00;;;5.29;52.82
49825;BME280;35714;55.708;37.478;2023-02-14T10:58:18;98731.50;;;5.26;53.10
49825;BME280;35714;55.708;37.478;2023-02-14T11:00:59;98745.81;;;5.52;52.28
49825;BME280;35714;55.708;37.478;2023-02-14T11:03:27;98748.66;;;5.57;52.36
49825;BME280;35714;55.708;37.478;2023-02-14T11:05:53;98749.84;;;5.61;52.33
49825;BME280;35714;55.708;37.478;2023-02-14T11:08:33;98759.91;;;5.72;52.12
49825;BME280;35714;55.708;37.478;2023-02-14T11:11:11;98767.19;;;5.65;51.32
49825;BME280;35714;55.708;37.478;2023-02-14T11:13:39;98766.41;;;5.58;51.48
49825;BME280;35714;55.708;37.478;2023-02-14T11:16:07;98762.16;;;5.50;51.64
49825;BME280;35714;55.708;37.478;2023-02-14T11:18:35;98765.28;;;5.47;52.27
49825;BME280;35714;55.708;37.478;2023-02-14T11:21:10;98770.25;;;5.43;52.06
49825;BME280;35714;55.708;37.478;2023-02-14T11:23:44;98767.66;;;5.30;52.50
49825;BME280;35714;55.708;37.478;2023-02-14T11:26:24;98771.44;;;5.22;52.91
49825;BME280;35714;55.708;37.478;2023-02-14T11:28:57;98774.38;;;5.14;52.93
49825;BME280;35714;55.708;37.478;2023-02-14T11:31:32;98789.97;;;4.99;53.14
49825;BME280;35714;55.708;37.478;2023-02-14T11:34:00;98785.91;;;4.76;53.53
49825;BME280;35714;55.708;37.478;2023-02-14T11:36:28;98778.16;;;4.55;54.31
49825;BME280;35714;55.708;37.478;2023-02-14T11:39:09;98792.59;;;4.60;54.52
49825;BME280;35714;55.708;37.478;2023-02-14T11:41:49;98791.75;;;4.66;54.62
49825;BME280;35714;55.708;37.478;2023-02-14T11:44:22;98793.75;;;4.78;54.54
49825;BME280;35714;55.708;37.478;2023-02-14T11:46:49;98786.69;;;4.90;54.20
49825;BME280;35714;55.708;37.478;2023-02-14T11:49:36;98784.91;;;5.16;53.39
49825;BME280;35714;55.708;37.478;2023-02-14T11:52:14;98793.19;;;5.46;53.01
49825;BME280;35714;55.708;37.478;2023-02-14T11:54:46;98795.06;;;6.65;53.35
49825;BME280;35714;55.708;37.478;2023-02-14T11:57:26;98797.41;;;7.94;50.38
49825;BME280;35714;55.708;37.478;2023-02-14T11:59:57;98805.44;;;8.89;47.83
49825;BME280;35714;55.708;37.478;2023-02-14T12:02:27;98810.28;;;9.73;47.52
49825;BME280;35714;55.708;37.478;2023-02-14T12:05:30;98813.00;;;10.80;44.72
49825;BME280;35714;55.708;37.478;2023-02-14T12:07:58;98822.22;;;11.51;43.12
49825;BME280;35714;55.708;37.478;2023-02-14T12:10:29;98813.94;;;11.68;41.32
49825;BME280;35714;55.708;37.478;2023-02-14T12:15:28;98825.13;;;10.56;41.41
49825;BME280;35714;55.708;37.478;2023-02-14T12:29:23;98837.72;;;7.77;44.06
49825;BME280;35714;55.708;37.478;2023-02-14T12:31:51;98846.53;;;7.43;44.98
49825;BME280;35714;55.708;37.478;2023-02-14T12:34:18;98847.72;;;7.16;45.37
49825;BME280;35714;55.708;37.478;2023-02-14T12:39:26;98860.81;;;7.31;46.00
49825;BME280;35714;55.708;37.478;2023-02-14T12:42:19;98859.94;;;7.49;44.43
49825;BME280;35714;55.708;37.478;2023-02-14T12:55:52;98894.66;;;6.28;46.75
49825;BME280;35714;55.708;37.478;2023-02-14T13:12:41;98929.22;;;5.09;48.35
49825;BME280;35714;55.708;37.478;2023-02-14T13:20:52;98946.09;;;5.29;48.05
49825;BME280;35714;55.708;37.478;2023-02-14T13:23:40;98937.44;;;5.27;48.02
49825;BME280;35714;55.708;37.478;2023-02-14T13:26:10;98939.94;;;5.22;48.15
49825;BME280;35714;55.708;37.478;2023-02-14T13:28:38;98952.75;;;5.20;48.64
49825;BME280;35714;55.708;37.478;2023-02-14T13:31:08;98949.44;;;5.24;48.76
49825;BME280;35714;55.708;37.478;2023-02-14T13:33:37;98952.97;;;5.25;48.28
49825;BME280;35714;55.708;37.478;2023-02-14T13:36:09;98967.25;;;5.19;48.15
49825;BME280;35714;55.708;37.478;2023-02-14T13:38:43;98966.03;;;5.08;48.46
49825;BME280;35714;55.708;37.478;2023-02-14T13:41:10;98972.69;;;4.92;48.69
49825;BME280;35714;55.708;37.478;2023-02-14T13:43:57;98985.47;;;4.90;48.60
49825;BME280;35714;55.708;37.478;2023-02-14T13:49:02;98994.16;;;4.59;49.39
49825;BME280;35714;55.708;37.478;2023-02-14T13:51:49;99001.00;;;4.55;49.59
49825;BME280;35714;55.708;37.478;2023-02-14T13:54:34;98997.88;;;4.44;50.07
49825;BME280;35714;55.708;37.478;2023-02-14T13:57:32;99011.09;;;4.39;50.17
49825;BME280;35714;55.708;37.478;2023-02-14T14:02:55;99017.69;;;4.23;50.76
49825;BME280;35714;55.708;37.478;2023-02-14T14:10:55;99030.84;;;4.05;51.55
49825;BME280;35714;55.708;37.478;2023-02-14T14:18:49;99030.34;;;3.74;52.30
49825;BME280;35714;55.708;37.478;2023-02-14T14:21:28;99047.25;;;3.75;52.37
49825;BME280;35714;55.708;37.478;2023-02-14T14:26:44;99059.56;;;3.63;52.54
49825;BME280;35714;55.708;37.478;2023-02-14T14:29:20;99055.88;;;3.64;52.83
49825;BME280;35714;55.708;37.478;2023-02-14T14:31:47;99070.50;;;3.61;53.17
49825;BME280;35714;55.708;37.478;2023-02-14T14:34:21;99071.31;;;3.61;53.20
49825;BME280;35714;55.708;37.478;2023-02-14T14:36:47;99073.41;;;3.66;53.14
49825;BME280;35714;55.708;37.478;2023-02-14T14:39:25;99078.63;;;3.74;53.28
49825;BME280;35714;55.708;37.478;2023-02-14T14:41:51;99079.63;;;3.73;53.13
49825;BME280;35714;55.708;37.478;2023-02-14T14:44:17;99085.81;;;3.74;53.03
49825;BME280;35714;55.708;37.478;2023-02-14T14:46:43;99078.63;;;3.74;53.30
49825;BME280;35714;55.708;37.478;2023-02-14T14:49:09;99076.94;;;3.67;53.46
49825;BME280;35714;55.708;37.478;2023-02-14T14:51:36;99089.28;;;3.68;53.44
49825;BME280;35714;55.708;37.478;2023-02-14T14:54:17;99096.50;;;3.60;53.84
49825;BME280;35714;55.708;37.478;2023-02-14T14:56:58;99099.97;;;3.54;54.45
49825;BME280;35714;55.708;37.478;2023-02-14T14:59:34;99103.66;;;3.53;54.44
49825;BME280;35714;55.708;37.478;2023-02-14T15:02:19;99110.44;;;3.49;54.58
49825;BME280;35714;55.708;37.478;2023-02-14T15:04:45;99113.13;;;3.49;54.81
49825;BME280;35714;55.708;37.478;2023-02-14T15:07:19;99115.22;;;3.54;54.56
49825;BME280;35714;55.708;37.478;2023-02-14T15:09:48;99109.19;;;3.45;54.83
49825;BME280;35714;55.708;37.478;2023-02-14T15:12:18;99123.41;;;3.46;54.87
49825;BME280;35714;55.708;37.478;2023-02-14T15:15:04;99106.47;;;3.38;55.26
49825;BME280;35714;55.708;37.478;2023-02-14T15:17:31;99126.44;;;3.36;55.24
49825;BME280;35714;55.708;37.478;2023-02-14T15:20:02;99123.47;;;3.24;55.78
49825;BME280;35714;55.708;37.478;2023-02-14T15:22:46;99140.94;;;3.20;56.24
49825;BME280;35714;55.708;37.478;2023-02-14T15:25:19;99147.91;;;3.14;56.88
49825;BME280;35714;55.708;37.478;2023-02-14T15:27:45;99146.25;;;3.13;57.29
49825;BME280;35714;55.708;37.478;2023-02-14T15:32:45;99153.53;;;2.98;58.30
49825;BME280;35714;55.708;37.478;2023-02-14T15:35:13;99151.00;;;2.89;58.88
49825;BME280;35714;55.708;37.478;2023-02-14T15:37:42;99160.03;;;2.88;59.36
49825;BME280;35714;55.708;37.478;2023-02-14T15:40:16;99156.28;;;2.83;59.51